Weather at Tva Heliport

Public forecast

Using degrees Fahrenheit for public forecast. Weather courtesy of forecast.io.

Closest aviation weather report (METAR) to Tva Heliport

Closest report is Tri-Cities Regional TN/VA Airport, 10.1 nm (18.7 km) N. Retrieved 2021/06/25 03:53 UTC (52 minutes ago):

KTRI 250353Z 11006KT 10SM SCT150 BKN200 21/14 A3025 RMK AO2 SLP218 T02110144

Closest aviation forecast (TAF) to Tva Heliport

Closest forecast is Tri-Cities Regional TN/VA Airport, 10.1 nm (18.7 km) N. Retrieved 2021-06-25 00:22 UTC (4 hours ago):

TAF KTRI 242320Z 2500/2524 14004KT P6SM FEW050 FM250200 VRB03KT P6SM FEW250 FM251700 17005KT P6SM FEW060 SCT250